Time;durP1;ratioP1;P1;durP2;ratioP2;P2;SDS_P1;SDS_P2;PMS_P1;PMS_P2;Temp;Humidity;BMP_temperature;BMP_pressure;BME280_temperature;BME280_humidity;BME280_pressure;Samples;Min_cycle;Max_cycle;Signal;HPM_P1;HPM_P2
2022/03/29 00:00:33;;;;;;;8.52;4.97;;;12.90;92.70;;;;;;7384528;19;20489;-79
2022/03/29 00:02:59;;;;;;;9.73;5.35;;;12.70;92.00;;;;;;7386975;19;20185;-80
2022/03/29 00:05:26;;;;;;;9.05;5.28;;;12.60;93.00;;;;;;7384634;19;20488;-76
2022/03/29 00:07:52;;;;;;;10.32;6.00;;;12.70;92.80;;;;;;7384305;19;20146;-78
2022/03/29 00:10:18;;;;;;;9.90;5.70;;;12.80;93.40;;;;;;7385058;19;20135;-78
2022/03/29 00:12:44;;;;;;;9.88;5.32;;;12.90;93.10;;;;;;7387776;19;20159;-79
2022/03/29 00:15:10;;;;;;;12.10;6.00;;;13.00;90.90;;;;;;7385844;19;20123;-79
2022/03/29 00:17:36;;;;;;;7.70;5.53;;;13.20;90.20;;;;;;7382298;19;20155;-79
2022/03/29 00:20:03;;;;;;;11.90;6.50;;;13.30;90.00;;;;;;7385273;19;20126;-80
2022/03/29 00:22:28;;;;;;;12.67;6.03;;;13.30;89.80;;;;;;7383531;19;20690;-80
2022/03/29 00:24:54;;;;;;;10.90;6.30;;;13.30;89.30;;;;;;7384958;19;20131;-77
2022/03/29 00:27:20;;;;;;;9.47;6.40;;;13.30;89.50;;;;;;7384149;19;20815;-77
2022/03/29 00:29:46;;;;;;;9.30;5.90;;;13.30;89.30;;;;;;7382915;19;20147;-79
2022/03/29 00:32:12;;;;;;;7.47;5.50;;;13.30;89.40;;;;;;7384312;19;20138;-79
2022/03/29 00:34:37;;;;;;;10.70;5.90;;;13.30;89.00;;;;;;7384937;19;20653;-77
2022/03/29 00:37:04;;;;;;;10.03;6.27;;;13.30;89.00;;;;;;7383124;19;20147;-79
2022/03/29 00:39:30;;;;;;;11.27;6.20;;;13.30;88.80;;;;;;7384676;19;20590;-78
2022/03/29 00:41:57;;;;;;;9.63;6.60;;;13.20;88.90;;;;;;7386640;19;20141;-79
2022/03/29 00:44:36;;;;;;;10.45;5.65;;;13.00;89.30;;;;;;7384267;19;20213;-80
2022/03/29 00:47:02;;;;;;;10.73;6.03;;;13.20;89.10;;;;;;7383223;19;20214;-78
2022/03/29 00:49:28;;;;;;;9.30;5.80;;;13.10;88.90;;;;;;7388026;19;20139;-78
2022/03/29 00:51:58;;;;;;;12.50;5.13;;;13.00;88.90;;;;;;7391414;19;20431;-77
2022/03/29 00:54:25;;;;;;;8.57;5.33;;;13.00;89.00;;;;;;7394519;19;20126;-77
2022/03/29 00:56:51;;;;;;;9.45;5.75;;;13.00;89.50;;;;;;7392203;19;20625;-77
2022/03/29 00:59:18;;;;;;;11.80;5.37;;;12.80;91.40;;;;;;7391734;19;20518;-79
2022/03/29 01:01:44;;;;;;;8.80;6.20;;;12.90;90.10;;;;;;7394080;19;20143;-79
2022/03/29 01:04:10;;;;;;;8.00;5.20;;;12.80;91.30;;;;;;7396583;19;20194;-79
2022/03/29 01:06:38;;;;;;;8.63;5.57;;;12.90;90.30;;;;;;7396614;19;20159;-77
2022/03/29 01:09:04;;;;;;;10.43;5.63;;;12.90;92.20;;;;;;7397203;19;20137;-79
2022/03/29 01:11:30;;;;;;;8.25;5.60;;;12.70;91.90;;;;;;7398816;19;20552;-77
2022/03/29 01:13:56;;;;;;;7.72;5.32;;;12.70;91.80;;;;;;7395753;19;20130;-79
2022/03/29 01:19:12;;;;;;;11.73;6.23;;;12.70;91.90;;;;;;7393260;19;20144;-77
2022/03/29 01:21:40;;;;;;;10.88;6.65;;;12.60;92.50;;;;;;7394159;19;20135;-79
2022/03/29 01:24:11;;;;;;;9.48;5.93;;;12.50;92.30;;;;;;7398590;19;20122;-79
2022/03/29 01:26:39;;;;;;;12.07;5.90;;;12.60;92.40;;;;;;7393303;19;20126;-79
2022/03/29 01:29:06;;;;;;;10.23;5.78;;;12.70;91.80;;;;;;7394395;19;20761;-78
2022/03/29 01:31:33;;;;;;;7.97;5.63;;;12.60;91.90;;;;;;7394526;19;20134;-78
2022/03/29 01:33:59;;;;;;;10.25;5.93;;;12.50;92.70;;;;;;7394126;19;20157;-79
2022/03/29 01:36:27;;;;;;;10.90;5.25;;;12.20;92.50;;;;;;7393852;19;20135;-79
2022/03/29 01:38:53;;;;;;;11.35;6.30;;;12.20;92.30;;;;;;7391027;19;20131;-79
2022/03/29 01:41:19;;;;;;;10.57;5.80;;;12.20;92.30;;;;;;7397586;19;20138;-79
2022/03/29 01:43:44;;;;;;;11.60;6.10;;;12.20;93.10;;;;;;7392758;19;20153;-77
2022/03/29 01:46:12;;;;;;;10.77;6.23;;;12.30;93.00;;;;;;7392849;19;20147;-78
2022/03/29 01:48:38;;;;;;;10.30;6.27;;;12.40;92.80;;;;;;7393650;19;20142;-80
2022/03/29 01:51:06;;;;;;;12.53;6.47;;;12.50;93.00;;;;;;7392007;19;20149;-79
2022/03/29 01:53:32;;;;;;;12.48;6.30;;;12.40;92.90;;;;;;7391890;19;20142;-79
2022/03/29 01:56:00;;;;;;;12.40;5.55;;;12.20;93.10;;;;;;7392723;19;20126;-77
2022/03/29 01:58:27;;;;;;;13.50;6.63;;;12.30;92.90;;;;;;7396790;19;20134;-78
2022/03/29 02:00:54;;;;;;;13.00;6.20;;;12.60;91.10;;;;;;7393018;19;20123;-78
2022/03/29 02:03:20;;;;;;;11.47;6.37;;;12.60;91.70;;;;;;7390244;19;20137;-78
2022/03/29 02:05:46;;;;;;;9.40;5.47;;;12.30;92.20;;;;;;7391659;19;21053;-78
2022/03/29 02:08:12;;;;;;;9.38;5.75;;;12.00;92.70;;;;;;7392805;19;20134;-78
2022/03/29 02:10:38;;;;;;;11.27;6.18;;;12.20;93.20;;;;;;7392635;19;20134;-77
2022/03/29 02:13:04;;;;;;;15.80;6.22;;;12.40;92.80;;;;;;7391416;19;20135;-78
2022/03/29 02:15:30;;;;;;;15.02;6.32;;;12.60;91.80;;;;;;7395244;19;20384;-79
2022/03/29 02:17:56;;;;;;;8.97;5.50;;;12.70;91.20;;;;;;7388864;19;20151;-78
2022/03/29 02:20:24;;;;;;;8.40;5.77;;;12.80;91.10;;;;;;7392591;19;20134;-79
2022/03/29 02:22:49;;;;;;;8.83;5.80;;;12.70;91.10;;;;;;7391622;19;20142;-77
2022/03/29 02:25:15;;;;;;;13.33;6.67;;;12.70;91.00;;;;;;7391832;19;20991;-78
2022/03/29 02:27:43;;;;;;;9.17;5.70;;;12.60;91.40;;;;;;7391160;19;20127;-79
2022/03/29 02:30:12;;;;;;;8.93;5.60;;;12.60;90.90;;;;;;7391783;19;20150;-77
2022/03/29 02:32:38;;;;;;;10.80;5.87;;;12.60;91.00;;;;;;7390782;19;20134;-78
2022/03/29 02:35:05;;;;;;;12.70;5.77;;;12.60;91.00;;;;;;7392183;19;20130;-79
2022/03/29 02:37:31;;;;;;;9.10;6.20;;;12.60;90.90;;;;;;7389618;19;20153;-79
2022/03/29 02:39:56;;;;;;;8.83;5.73;;;12.60;90.90;;;;;;7388304;19;20221;-79
2022/03/29 02:42:22;;;;;;;15.80;6.10;;;12.60;90.80;;;;;;7390690;19;20146;-79
2022/03/29 02:44:48;;;;;;;10.63;6.43;;;12.50;90.90;;;;;;7391763;19;20126;-78
2022/03/29 02:47:14;;;;;;;9.10;5.67;;;12.50;90.90;;;;;;7389007;19;20156;-78
2022/03/29 02:49:39;;;;;;;10.47;5.73;;;12.40;90.90;;;;;;7395753;19;20141;-79
2022/03/29 02:52:05;;;;;;;12.33;6.53;;;12.30;90.80;;;;;;7392031;19;20148;-77
2022/03/29 02:54:31;;;;;;;11.67;6.00;;;12.30;90.80;;;;;;7390179;19;20202;-77
2022/03/29 02:56:57;;;;;;;12.97;5.90;;;12.30;90.80;;;;;;7390160;19;20130;-77
2022/03/29 02:59:23;;;;;;;8.40;5.87;;;12.30;90.90;;;;;;7390834;19;20139;-77
2022/03/29 03:01:48;;;;;;;10.90;6.00;;;12.30;90.80;;;;;;7389302;19;20131;-78
2022/03/29 03:04:14;;;;;;;8.93;6.10;;;12.30;90.70;;;;;;7389257;19;20157;-78
2022/03/29 03:06:43;;;;;;;7.13;5.27;;;12.30;90.60;;;;;;7389868;19;20134;-79
2022/03/29 03:09:09;;;;;;;11.27;7.00;;;12.20;90.60;;;;;;7390458;19;20131;-79
2022/03/29 03:11:36;;;;;;;10.33;5.77;;;12.20;90.60;;;;;;7391088;19;20137;-78
2022/03/29 03:14:03;;;;;;;9.80;6.00;;;12.10;90.70;;;;;;7391199;19;20142;-78
2022/03/29 03:16:29;;;;;;;10.00;5.87;;;12.20;90.60;;;;;;7390171;19;20127;-77
2022/03/29 03:18:54;;;;;;;12.07;6.13;;;12.20;90.70;;;;;;7388992;19;20234;-79
2022/03/29 03:21:20;;;;;;;7.67;5.33;;;12.10;90.50;;;;;;7390701;19;20154;-78
2022/03/29 03:23:46;;;;;;;13.67;6.60;;;12.10;91.30;;;;;;7390164;19;20594;-79
2022/03/29 03:26:13;;;;;;;10.10;5.03;;;12.00;91.10;;;;;;7388184;19;20134;-81
2022/03/29 03:28:38;;;;;;;9.63;5.80;;;12.10;91.10;;;;;;7387825;19;20180;-80
2022/03/29 03:31:04;;;;;;;7.73;5.00;;;12.10;91.20;;;;;;7390529;19;20139;-78
2022/03/29 03:33:30;;;;;;;9.73;6.10;;;12.10;90.90;;;;;;7388518;19;20558;-77
2022/03/29 03:35:56;;;;;;;9.53;5.70;;;12.20;90.70;;;;;;7389289;19;20126;-78
2022/03/29 03:38:22;;;;;;;7.43;5.57;;;12.20;90.50;;;;;;7388100;19;20127;-79
2022/03/29 03:40:47;;;;;;;8.40;5.60;;;12.30;90.30;;;;;;7389026;19;20473;-77
2022/03/29 03:43:13;;;;;;;9.07;5.70;;;12.30;90.30;;;;;;7388764;19;20226;-79
2022/03/29 03:45:39;;;;;;;11.87;6.13;;;12.20;90.50;;;;;;7390452;19;20135;-78
2022/03/29 03:48:05;;;;;;;9.37;5.77;;;12.20;90.40;;;;;;7388904;19;20226;-77
2022/03/29 03:50:32;;;;;;;10.47;6.13;;;12.10;90.50;;;;;;7389831;19;20672;-79
2022/03/29 03:52:59;;;;;;;9.77;5.47;;;12.10;90.50;;;;;;7389406;19;20138;-77
2022/03/29 03:55:25;;;;;;;8.40;5.40;;;12.00;90.60;;;;;;7387979;19;20134;-79
2022/03/29 03:57:50;;;;;;;7.97;4.87;;;11.90;90.80;;;;;;7391201;19;20119;-77
2022/03/29 04:00:17;;;;;;;10.17;5.60;;;11.80;90.80;;;;;;7390332;19;20135;-78
2022/03/29 04:02:43;;;;;;;11.30;6.37;;;11.80;90.70;;;;;;7389260;19;20216;-80
2022/03/29 04:05:12;;;;;;;7.43;5.63;;;11.80;90.90;;;;;;7387647;19;20455;-81
2022/03/29 04:07:38;;;;;;;9.67;6.00;;;11.70;90.90;;;;;;7387720;19;20131;-78
2022/03/29 04:10:06;;;;;;;9.80;6.17;;;11.70;90.80;;;;;;7389530;19;20489;-78
2022/03/29 04:12:32;;;;;;;10.10;5.50;;;11.60;91.00;;;;;;7389234;19;20161;-78
2022/03/29 04:14:57;;;;;;;9.53;5.77;;;11.60;91.40;;;;;;7389701;19;20138;-81
2022/03/29 04:17:23;;;;;;;10.23;5.37;;;11.30;91.70;;;;;;7387892;19;20146;-80
2022/03/29 04:19:49;;;;;;;8.13;5.83;;;11.50;91.20;;;;;;7387441;19;20148;-81
2022/03/29 04:22:18;;;;;;;12.03;6.30;;;11.60;91.10;;;;;;7389783;19;20139;-77
2022/03/29 04:24:44;;;;;;;8.33;5.73;;;11.70;91.30;;;;;;7386887;19;20134;-80
2022/03/29 04:27:10;;;;;;;13.97;6.13;;;11.60;91.50;;;;;;7386907;19;20126;-77
2022/03/29 04:29:36;;;;;;;11.20;6.50;;;11.70;91.30;;;;;;7385309;19;20147;-79
2022/03/29 04:32:03;;;;;;;9.17;6.00;;;11.60;91.30;;;;;;7388855;19;20157;-78
2022/03/29 04:34:28;;;;;;;9.00;5.50;;;11.50;91.50;;;;;;7388058;19;20138;-80
2022/03/29 04:36:55;;;;;;;10.20;6.40;;;11.30;91.90;;;;;;7386896;19;20498;-77
2022/03/29 04:39:20;;;;;;;10.60;5.57;;;11.10;92.20;;;;;;7387709;19;20141;-77
2022/03/29 04:41:46;;;;;;;9.80;5.97;;;11.00;92.60;;;;;;7388215;19;20131;-80
2022/03/29 04:44:12;;;;;;;8.30;5.90;;;10.90;92.80;;;;;;7389471;19;20584;-78
2022/03/29 04:46:38;;;;;;;12.20;5.63;;;10.90;93.10;;;;;;7387728;19;20380;-80
2022/03/29 04:49:03;;;;;;;8.90;5.60;;;11.00;93.00;;;;;;7393931;19;20158;-80
2022/03/29 04:51:29;;;;;;;11.17;5.53;;;11.20;92.50;;;;;;7386685;19;20130;-79
2022/03/29 04:53:55;;;;;;;9.23;6.03;;;11.50;92.30;;;;;;7388024;19;20186;-81
2022/03/29 04:56:20;;;;;;;10.80;6.03;;;11.30;92.40;;;;;;7385454;19;20131;-78
2022/03/29 04:58:46;;;;;;;9.80;5.50;;;11.30;92.30;;;;;;7387374;19;20127;-81
2022/03/29 05:01:13;;;;;;;7.97;5.73;;;11.30;92.40;;;;;;7387533;19;20177;-80
2022/03/29 05:03:38;;;;;;;9.20;6.10;;;11.20;92.60;;;;;;7386268;19;20134;-80
2022/03/29 05:06:04;;;;;;;10.47;6.00;;;11.20;92.70;;;;;;7387049;19;20126;-81
2022/03/29 05:08:30;;;;;;;10.33;6.10;;;11.10;92.50;;;;;;7386778;19;20202;-80
2022/03/29 05:10:56;;;;;;;9.93;5.93;;;11.00;92.80;;;;;;7388909;19;20134;-82
2022/03/29 05:13:22;;;;;;;9.33;5.83;;;11.00;93.00;;;;;;7386850;19;20138;-84
2022/03/29 05:15:48;;;;;;;10.20;5.57;;;11.10;93.20;;;;;;7391560;19;20609;-79
2022/03/29 05:18:14;;;;;;;9.70;6.10;;;11.00;93.00;;;;;;7383795;19;20146;-79
2022/03/29 05:20:40;;;;;;;8.37;5.50;;;11.50;92.10;;;;;;7388356;19;20135;-81
2022/03/29 05:23:09;;;;;;;15.17;6.53;;;11.60;91.70;;;;;;7386231;19;20127;-78
2022/03/29 05:25:35;;;;;;;9.60;6.00;;;11.60;91.50;;;;;;7387875;19;20130;-78
2022/03/29 05:28:02;;;;;;;8.73;5.13;;;11.60;91.80;;;;;;7385538;19;20659;-79
2022/03/29 05:30:29;;;;;;;9.53;5.07;;;11.70;91.70;;;;;;7386919;19;20146;-75
2022/03/29 05:33:00;;;;;;;8.33;5.90;;;11.80;91.60;;;;;;7387323;19;20142;-80
2022/03/29 05:35:30;;;;;;;11.37;6.07;;;11.70;91.50;;;;;;7386126;19;20143;-75
2022/03/29 05:37:57;;;;;;;12.07;6.07;;;11.70;91.70;;;;;;7388634;19;20173;-76
2022/03/29 05:40:24;;;;;;;16.70;6.40;;;11.70;92.10;;;;;;7396593;19;20142;-81
2022/03/29 05:42:52;;;;;;;11.23;6.60;;;11.60;92.10;;;;;;7393382;19;20141;-75
2022/03/29 05:45:18;;;;;;;10.53;6.37;;;11.60;92.50;;;;;;7393607;19;20467;-75
2022/03/29 05:50:29;;;;;;;10.63;6.17;;;11.80;91.60;;;;;;7394988;19;20159;-74
2022/03/29 05:52:56;;;;;;;10.63;6.20;;;11.80;91.90;;;;;;7394913;19;20493;-81
2022/03/29 05:55:22;;;;;;;12.10;6.17;;;11.70;92.00;;;;;;7393430;19;20138;-74
2022/03/29 05:57:49;;;;;;;12.40;7.10;;;11.80;92.10;;;;;;7392061;19;20138;-79
2022/03/29 06:00:17;;;;;;;15.00;6.40;;;11.70;92.30;;;;;;7393930;19;20616;-81
2022/03/29 06:02:43;;;;;;;12.17;6.67;;;11.80;92.30;;;;;;7391862;19;20151;-82
2022/03/29 06:05:09;;;;;;;11.87;6.83;;;11.80;92.50;;;;;;7393778;19;20155;-80
2022/03/29 06:07:36;;;;;;;10.77;6.17;;;11.90;92.50;;;;;;7393572;19;20205;-81
2022/03/29 06:10:06;;;;;;;13.33;6.50;;;11.90;92.20;;;;;;7392897;19;20721;-76
2022/03/29 06:12:33;;;;;;;12.90;6.53;;;11.90;92.10;;;;;;7393553;19;20130;-77
2022/03/29 06:15:08;;;;;;;12.13;6.83;;;11.90;91.90;;;;;;7395215;19;20640;-77
2022/03/29 06:17:35;;;;;;;12.73;7.00;;;12.00;91.80;;;;;;7391493;19;20629;-81
2022/03/29 06:20:03;;;;;;;12.10;6.87;;;12.00;91.80;;;;;;7389353;19;20142;-78
2022/03/29 06:22:31;;;;;;;14.83;6.40;;;12.00;91.60;;;;;;7390900;19;20134;-81
2022/03/29 06:24:58;;;;;;;14.17;7.00;;;12.00;91.70;;;;;;7397016;19;20142;-80
2022/03/29 06:27:25;;;;;;;12.73;6.83;;;12.00;91.70;;;;;;7393686;19;20139;-79
2022/03/29 06:29:54;;;;;;;12.73;6.30;;;12.00;91.60;;;;;;7392698;19;20479;-80
2022/03/29 06:32:19;;;;;;;15.30;6.70;;;12.10;91.60;;;;;;7394462;19;20622;-77
2022/03/29 06:34:45;;;;;;;14.73;6.77;;;12.00;91.60;;;;;;7392312;19;20134;-78
2022/03/29 06:37:11;;;;;;;11.73;6.70;;;12.10;91.50;;;;;;7392931;19;20127;-80
2022/03/29 06:39:37;;;;;;;13.30;6.50;;;12.10;91.40;;;;;;7392731;19;20187;-77
2022/03/29 06:42:03;;;;;;;12.50;6.97;;;12.20;91.30;;;;;;7394234;19;20151;-81
2022/03/29 06:44:29;;;;;;;16.87;7.40;;;12.30;91.10;;;;;;7393260;19;20133;-78
2022/03/29 06:46:57;;;;;;;12.67;6.57;;;12.30;91.00;;;;;;7391328;19;20633;-78
2022/03/29 06:49:23;;;;;;;13.93;6.40;;;12.40;90.90;;;;;;7392009;19;20131;-78
2022/03/29 06:51:50;;;;;;;16.03;6.40;;;12.40;90.80;;;;;;7391806;19;20202;-80
2022/03/29 06:54:28;;;;;;;10.77;7.40;;;12.40;90.80;;;;;;7394227;19;20127;-78
2022/03/29 06:57:28;;;;;;;10.17;6.40;;;12.30;90.90;;;;;;7393797;19;20130;-77
2022/03/29 06:59:55;;;;;;;11.97;6.50;;;12.20;91.00;;;;;;7393144;19;20150;-79
2022/03/29 07:03:29;;;;;;;10.27;6.77;;;12.30;91.00;;;;;;7398973;19;20142;-80
2022/03/29 07:07:12;;;;;;;13.07;6.07;;;12.40;90.90;;;;;;7390803;19;20146;-81
2022/03/29 07:13:15;;;;;;;12.37;6.43;;;12.50;90.80;;;;;;7395163;19;20198;-79
2022/03/29 07:16:29;;;;;;;;;;;;;;;;;;;;;
2022/03/29 07:19:23;;;;;;;12.07;6.77;;;12.60;90.80;;;;;;7392466;19;20151;-79
2022/03/29 07:22:07;;;;;;;12.73;7.17;;;12.70;90.90;;;;;;7393321;19;20585;-80
2022/03/29 07:24:39;;;;;;;16.10;7.40;;;12.70;90.90;;;;;;7393368;19;20139;-78
2022/03/29 07:27:05;;;;;;;13.53;6.57;;;12.80;90.80;;;;;;7394963;19;20164;-80
2022/03/29 07:30:07;;;;;;;13.47;7.13;;;12.90;90.70;;;;;;7394220;19;20138;-79
2022/03/29 07:36:56;;;;;;;11.60;6.33;;;12.90;90.60;;;;;;7389863;19;20161;-78
2022/03/29 07:39:53;;;;;;;;;;;;;;;;;;;;;
2022/03/29 07:43:31;;;;;;;;;;;;;;;;;;;;;
2022/03/29 07:46:18;;;;;;;15.07;7.20;;;13.00;90.60;;;;;;7385959;19;20610;-81
2022/03/29 07:52:09;;;;;;;11.37;7.40;;;13.20;90.40;;;;;;7386633;19;20164;-79
2022/03/29 07:58:10;;;;;;;;;;;;;;;;;;;;;
2022/03/29 08:07:57;;;;;;;;;;;;;;;;;;;;;
2022/03/29 09:37:53;;;;;;;12.90;7.32;;;15.80;84.30;;;;;;7099221;19;20162;-80
2022/03/29 09:47:08;;;;;;;13.63;7.88;;;16.30;82.90;;;;;;7412815;19;20137;-76
2022/03/29 09:50:09;;;;;;;12.98;7.85;;;16.10;83.20;;;;;;7399849;19;20122;-79
2022/03/29 09:52:37;;;;;;;13.50;7.25;;;16.30;82.00;;;;;;7390985;19;20492;-77
2022/03/29 09:55:07;;;;;;;11.70;7.13;;;16.40;81.80;;;;;;7390593;19;20131;-76
2022/03/29 09:57:46;;;;;;;11.40;7.53;;;16.50;80.80;;;;;;7390743;19;20692;-79
2022/03/29 10:00:16;;;;;;;11.38;7.68;;;16.40;81.10;;;;;;7388699;19;20270;-76
2022/03/29 10:02:47;;;;;;;16.45;7.47;;;16.50;80.50;;;;;;7390223;19;20130;-77
2022/03/29 10:05:16;;;;;;;13.57;7.50;;;16.40;81.20;;;;;;7390337;19;20150;-80
2022/03/29 10:07:44;;;;;;;13.00;7.68;;;16.50;81.50;;;;;;7391814;19;20131;-79
2022/03/29 10:10:11;;;;;;;13.23;7.15;;;16.70;80.00;;;;;;7400051;19;20135;-80
2022/03/29 10:12:40;;;;;;;13.27;6.78;;;16.50;81.00;;;;;;7390753;19;20139;-79
2022/03/29 10:15:06;;;;;;;10.98;7.15;;;16.70;80.30;;;;;;7395031;19;20126;-79
2022/03/29 10:17:33;;;;;;;11.57;7.72;;;16.90;79.60;;;;;;7389951;19;20135;-76
2022/03/29 10:20:01;;;;;;;14.00;6.70;;;16.90;79.30;;;;;;7389836;19;20134;-77
2022/03/29 10:22:27;;;;;;;12.32;6.78;;;16.80;80.10;;;;;;7392559;19;20137;-77
2022/03/29 10:24:53;;;;;;;13.75;7.22;;;16.90;79.70;;;;;;7389575;19;20131;-77
2022/03/29 10:27:24;;;;;;;14.15;6.78;;;17.00;79.00;;;;;;7390166;19;20226;-80
2022/03/29 10:29:50;;;;;;;14.90;7.97;;;17.00;78.90;;;;;;7394234;19;20130;-80
2022/03/29 10:32:31;;;;;;;10.13;6.75;;;17.00;79.50;;;;;;7401518;19;20165;-77
2022/03/29 10:35:23;;;;;;;14.65;8.13;;;17.20;79.40;;;;;;7391911;19;20137;-82
2022/03/29 10:37:54;;;;;;;12.30;7.53;;;17.40;79.20;;;;;;7386603;19;20166;-78
2022/03/29 10:40:39;;;;;;;14.23;7.72;;;17.40;78.50;;;;;;7391034;19;20159;-82
2022/03/29 10:43:26;;;;;;;15.57;7.60;;;17.40;80.00;;;;;;7390767;19;20208;-78
2022/03/29 10:45:52;;;;;;;11.48;7.28;;;17.40;78.90;;;;;;7392653;19;20153;-81
2022/03/29 10:48:18;;;;;;;12.68;7.82;;;17.40;78.90;;;;;;7395570;19;20130;-78
2022/03/29 10:50:47;;;;;;;11.93;7.18;;;17.40;78.50;;;;;;7390513;19;20556;-78
2022/03/29 10:53:32;;;;;;;15.00;8.35;;;17.50;77.90;;;;;;7392007;19;20138;-79
2022/03/29 10:56:15;;;;;;;14.23;7.53;;;17.50;79.40;;;;;;7398603;19;20142;-80
2022/03/29 10:58:59;;;;;;;12.90;7.75;;;17.60;77.90;;;;;;7389256;19;20234;-80
2022/03/29 11:01:26;;;;;;;12.75;7.00;;;17.60;77.50;;;;;;7390488;19;20131;-81
2022/03/29 11:04:20;;;;;;;12.07;7.30;;;17.50;78.10;;;;;;7390462;19;20138;-79
2022/03/29 11:07:04;;;;;;;14.40;8.18;;;17.50;78.40;;;;;;7390719;19;20154;-77
2022/03/29 11:09:37;;;;;;;12.02;7.78;;;17.60;78.10;;;;;;7389680;19;20139;-82
2022/03/29 11:12:04;;;;;;;12.77;7.35;;;17.60;78.40;;;;;;7389427;19;20158;-79
2022/03/29 11:14:38;;;;;;;12.00;7.82;;;17.50;79.20;;;;;;7389220;19;20601;-80
2022/03/29 11:17:08;;;;;;;15.45;8.55;;;17.70;78.30;;;;;;7389889;19;20126;-80
2022/03/29 11:19:43;;;;;;;12.10;7.88;;;17.70;78.50;;;;;;7389829;19;20148;-81
2022/03/29 11:22:36;;;;;;;12.85;8.55;;;17.80;77.80;;;;;;7394081;19;20251;-78
2022/03/29 11:25:07;;;;;;;18.92;8.18;;;17.80;78.10;;;;;;7390295;19;20496;-82
2022/03/29 11:27:37;;;;;;;12.88;8.48;;;17.80;78.60;;;;;;7388987;19;20126;-79
2022/03/29 11:30:08;;;;;;;14.63;8.82;;;17.80;79.40;;;;;;7388253;19;20149;-76
2022/03/29 11:32:35;;;;;;;11.48;7.57;;;18.00;77.90;;;;;;7390676;19;20138;-81
2022/03/29 11:35:08;;;;;;;14.95;8.48;;;18.00;78.20;;;;;;7385563;19;20139;-80
2022/03/29 11:37:45;;;;;;;13.93;8.20;;;18.20;78.00;;;;;;7389293;19;20147;-77
2022/03/29 11:40:14;;;;;;;15.85;8.43;;;18.30;77.30;;;;;;7388392;19;20167;-81
2022/03/29 11:42:51;;;;;;;14.98;8.35;;;18.20;77.50;;;;;;7389882;19;20133;-81
2022/03/29 11:45:27;;;;;;;14.05;8.63;;;18.30;76.60;;;;;;7393978;19;20163;-81
2022/03/29 11:48:11;;;;;;;15.75;8.45;;;18.20;77.40;;;;;;7389022;19;20138;-81
2022/03/29 11:50:45;;;;;;;18.17;8.82;;;18.10;76.80;;;;;;7389133;19;20620;-81
2022/03/29 11:53:35;;;;;;;14.43;8.52;;;18.10;77.50;;;;;;7388087;19;20258;-80
2022/03/29 11:56:00;;;;;;;11.52;7.40;;;18.20;76.60;;;;;;7386031;19;20238;-79
2022/03/29 11:58:32;;;;;;;12.30;7.50;;;18.20;76.80;;;;;;7388701;19;20279;-78
2022/03/29 12:01:19;;;;;;;15.27;8.15;;;18.20;76.60;;;;;;7387841;19;20655;-78
2022/03/29 12:03:48;;;;;;;12.02;7.53;;;18.40;76.20;;;;;;7388143;19;20254;-81
2022/03/29 12:06:47;;;;;;;14.98;8.07;;;18.50;75.50;;;;;;7396742;19;20131;-80
2022/03/29 12:09:20;;;;;;;14.52;8.25;;;18.40;75.80;;;;;;7388540;19;20530;-78
2022/03/29 12:11:45;;;;;;;12.68;8.18;;;18.50;75.40;;;;;;7386918;19;20537;-79
2022/03/29 12:14:18;;;;;;;13.00;7.43;;;18.40;75.20;;;;;;7387632;19;20131;-79
2022/03/29 12:16:46;;;;;;;13.02;8.35;;;18.30;76.20;;;;;;7385619;19;20122;-79
2022/03/29 12:19:19;;;;;;;12.95;7.85;;;18.40;75.40;;;;;;7387703;19;20131;-84
2022/03/29 12:21:51;;;;;;;16.02;7.80;;;18.50;74.90;;;;;;7387141;19;20145;-80
2022/03/29 12:24:17;;;;;;;13.02;8.77;;;18.50;74.40;;;;;;7386416;19;20127;-77
2022/03/29 12:26:56;;;;;;;12.57;7.75;;;18.60;74.10;;;;;;7387214;19;20598;-81
2022/03/29 12:29:24;;;;;;;19.23;10.15;;;18.60;74.60;;;;;;7394593;19;20159;-77
2022/03/29 12:31:51;;;;;;;16.77;8.68;;;18.60;74.60;;;;;;7385981;19;20137;-78
2022/03/29 12:34:26;;;;;;;13.07;7.55;;;18.60;73.80;;;;;;7385732;19;20126;-80
2022/03/29 12:36:55;;;;;;;13.73;8.07;;;18.50;74.20;;;;;;7385462;19;20198;-79
2022/03/29 12:39:21;;;;;;;12.25;7.82;;;18.50;74.30;;;;;;7385911;19;20267;-77
2022/03/29 12:41:53;;;;;;;13.02;7.88;;;18.50;74.60;;;;;;7384941;19;20130;-78
2022/03/29 12:44:37;;;;;;;14.55;8.13;;;18.50;74.60;;;;;;7385815;19;20135;-78
2022/03/29 12:47:04;;;;;;;14.77;8.98;;;18.60;74.70;;;;;;7389770;19;20130;-78
2022/03/29 12:49:35;;;;;;;17.48;8.52;;;18.50;74.90;;;;;;7401245;19;20239;-78
2022/03/29 12:52:04;;;;;;;14.82;8.20;;;18.60;74.40;;;;;;7397159;19;20134;-78
2022/03/29 12:54:50;;;;;;;14.13;8.30;;;18.60;74.30;;;;;;7392424;19;20295;-77
2022/03/29 12:57:34;;;;;;;13.77;8.93;;;18.70;74.00;;;;;;7393887;19;20138;-79
2022/03/29 13:00:19;;;;;;;16.50;8.55;;;18.60;74.50;;;;;;7390493;19;20198;-77
2022/03/29 13:02:48;;;;;;;14.32;8.00;;;18.50;74.40;;;;;;7392892;19;20601;-79
2022/03/29 13:05:16;;;;;;;11.85;7.65;;;18.50;74.10;;;;;;7394308;19;20138;-79
2022/03/29 13:07:52;;;;;;;14.23;8.45;;;18.50;73.80;;;;;;7390960;19;20731;-79
2022/03/29 13:10:20;;;;;;;13.95;8.98;;;18.50;74.10;;;;;;7393876;19;20165;-78
2022/03/29 13:13:10;;;;;;;15.10;9.20;;;18.50;73.80;;;;;;7401175;19;20141;-78
2022/03/29 13:16:00;;;;;;;13.95;8.20;;;18.40;74.00;;;;;;7392088;19;20646;-79
2022/03/29 13:18:34;;;;;;;12.70;8.05;;;18.40;74.20;;;;;;7390772;19;20142;-80
2022/03/29 13:21:16;;;;;;;17.42;8.88;;;18.40;74.10;;;;;;7393669;19;20123;-78
2022/03/29 13:24:15;;;;;;;15.25;8.75;;;18.50;74.50;;;;;;7392430;19;20142;-79
2022/03/29 13:26:52;;;;;;;15.07;9.38;;;18.60;73.90;;;;;;7391125;19;20484;-78
2022/03/29 13:29:19;;;;;;;14.93;8.95;;;18.60;73.30;;;;;;7389663;19;20150;-80
2022/03/29 13:31:50;;;;;;;13.13;8.70;;;18.60;73.40;;;;;;7391091;19;20134;-77
2022/03/29 13:34:16;;;;;;;16.00;8.20;;;18.50;73.60;;;;;;7391672;19;20142;-79
2022/03/29 13:36:43;;;;;;;14.07;8.73;;;18.50;74.00;;;;;;7397892;19;20308;-78
2022/03/29 13:39:11;;;;;;;19.73;9.40;;;18.40;74.90;;;;;;7394496;19;20157;-77
2022/03/29 13:41:37;;;;;;;16.50;9.43;;;18.60;74.60;;;;;;7392226;19;20146;-77
2022/03/29 13:44:03;;;;;;;14.57;9.63;;;18.50;76.00;;;;;;7388913;19;20129;-79
2022/03/29 13:46:29;;;;;;;21.17;10.32;;;18.60;75.20;;;;;;7388830;19;20504;-79
2022/03/29 13:48:55;;;;;;;17.10;9.57;;;18.60;74.30;;;;;;7395351;19;20186;-77
2022/03/29 13:51:21;;;;;;;15.57;9.15;;;18.70;74.20;;;;;;7392276;19;20127;-77
2022/03/29 13:53:47;;;;;;;15.82;9.25;;;18.60;74.20;;;;;;7394825;19;20117;-80
2022/03/29 13:56:13;;;;;;;15.80;10.00;;;18.70;74.30;;;;;;7390499;19;20127;-80
2022/03/29 13:58:40;;;;;;;17.17;8.63;;;18.70;73.70;;;;;;7394463;19;20210;-79
2022/03/29 14:01:06;;;;;;;17.13;9.68;;;18.60;73.80;;;;;;7391830;19;20134;-79
2022/03/29 14:03:33;;;;;;;16.08;8.93;;;18.60;75.00;;;;;;7391702;19;20127;-77
2022/03/29 14:06:03;;;;;;;19.33;9.48;;;18.70;75.00;;;;;;7391646;19;20213;-79
2022/03/29 14:08:31;;;;;;;16.77;9.43;;;18.60;75.50;;;;;;7392561;19;20581;-80
2022/03/29 14:10:59;;;;;;;18.75;9.98;;;18.60;75.90;;;;;;7390603;19;20151;-81
2022/03/29 14:13:29;;;;;;;15.95;9.88;;;18.70;75.50;;;;;;7390509;19;20606;-76
2022/03/29 14:15:56;;;;;;;18.45;9.50;;;18.60;75.30;;;;;;7392340;19;20148;-79
2022/03/29 14:18:23;;;;;;;13.95;9.15;;;18.60;76.50;;;;;;7389462;19;20606;-77
2022/03/29 14:20:50;;;;;;;15.55;9.18;;;18.50;76.40;;;;;;7394628;19;20133;-78
2022/03/29 14:23:18;;;;;;;16.05;9.30;;;18.60;76.10;;;;;;7391529;19;20626;-80
2022/03/29 14:25:45;;;;;;;18.58;9.55;;;18.80;75.30;;;;;;7389666;19;20123;-79
2022/03/29 14:28:11;;;;;;;16.88;8.63;;;18.80;74.90;;;;;;7386843;19;20138;-79
2022/03/29 14:30:39;;;;;;;20.05;9.85;;;18.70;74.90;;;;;;7393417;19;20141;-79
2022/03/29 14:33:06;;;;;;;16.75;9.35;;;18.60;74.80;;;;;;7388606;19;20196;-80
2022/03/29 14:35:32;;;;;;;15.32;8.73;;;18.60;75.10;;;;;;7389239;19;20130;-79
2022/03/29 14:37:58;;;;;;;14.52;9.35;;;18.70;74.90;;;;;;7387291;19;20159;-78
2022/03/29 14:40:24;;;;;;;16.13;9.38;;;18.70;75.10;;;;;;7387534;19;20483;-78
2022/03/29 14:42:51;;;;;;;15.27;9.30;;;18.70;75.30;;;;;;7391219;19;20593;-76
2022/03/29 14:45:18;;;;;;;16.67;9.55;;;18.70;75.80;;;;;;7395564;19;20122;-79
2022/03/29 14:47:45;;;;;;;17.08;9.57;;;18.80;75.30;;;;;;7390650;19;20141;-77
2022/03/29 14:50:16;;;;;;;16.90;9.63;;;18.70;76.00;;;;;;7389816;19;20632;-78
2022/03/29 14:52:45;;;;;;;16.73;9.90;;;18.80;75.40;;;;;;7388315;19;20134;-80
2022/03/29 14:55:14;;;;;;;16.15;10.00;;;18.80;75.00;;;;;;7388406;19;20610;-77
2022/03/29 14:57:39;;;;;;;18.08;10.43;;;18.80;75.20;;;;;;7386969;19;20489;-78
2022/03/29 15:00:10;;;;;;;18.10;9.43;;;18.70;75.50;;;;;;7386019;19;20135;-79
2022/03/29 15:02:36;;;;;;;16.65;9.05;;;18.70;75.90;;;;;;7389187;19;20141;-80